Flight Track Log - Related Links

Times and Time Zones

All times are in EDT time to prevent confusion due to time zone crossing. See the SWA554 flight status page for this flight to view local times or setup timezone preferences in your user account.

Time Position Orientation Groundspeed Altitude Reporting Facility
EDT Latitude Longitude Course Direction KTS MPH feet Rate Location/Type
Fri 05:22:42 PM 39.1500 -76.6500 131° Southeast 163 188 1,600  Level Potomac TRACON
Fri 05:23:42 PM 39.1167 -76.6000 131° Southeast 219 252 3,600 2,023 Climbing Potomac TRACON
Fri 05:25:37 PM 39.1250 -76.4317 86° East 288 331 7,500 2,366 Climbing Washington Center
Fri 05:26:37 PM 39.1406 -76.3194 80° East 302 348 10,500 2,900 Climbing Washington Center
Fri 05:27:37 PM 39.1578 -76.1858 81° East 338 389 13,300 3,100 Climbing Washington Center
Fri 05:28:37 PM 39.1753 -76.0306 82° East 374 430 16,700 3,400 Climbing Washington Center
Fri 05:29:37 PM 39.1944 -75.8917 80° East 392 451 20,100 2,950 Climbing Washington Center
Fri 05:30:37 PM 39.2717 -75.7819 48° Northeast 384 442 22,600 1,450 Climbing Washington Center
Fri 05:31:37 PM 39.3550 -75.6694 46° Northeast 397 457 23,000 1,100 Climbing Washington Center
Fri 05:32:37 PM 39.4428 -75.5594 44° Northeast 419 482 24,800 1,900 Climbing Washington Center
Fri 05:33:37 PM 39.5406 -75.4597 38° Northeast 430 495 26,800 1,734 Climbing Washington Center
Fri 05:35:30 PM 39.7433 -75.2903 33° Northeast 478 550 29,800 1,614 Climbing New York Center
Fri 05:36:28 PM 39.8519 -75.1783 38° Northeast 483 556 31,400 1,627 Climbing New York Center
Fri 05:37:28 PM 39.9194 -75.0392 58° Northeast 489 563 33,000 1,438 Climbing New York Center
Fri 05:38:29 PM 40.0111 -74.8686 55° Northeast 508 585 34,300 984 Climbing New York Center
Fri 05:39:30 PM 40.0892 -74.7158 56° Northeast 507 583 35,000 353 Climbing New York Center
Fri 05:40:28 PM 40.1672 -74.5628 56° Northeast 507 583 35,000  Level New York Center
Fri 05:41:29 PM 40.2492 -74.4069 55° Northeast 512 589 35,000  Level New York Center
Fri 05:42:29 PM 40.3289 -74.2531 56° Northeast 512 589 35,000  Level New York Center
Fri 05:43:30 PM 40.4267 -74.1217 46° Northeast 506 582 35,000  Level New York Center
Fri 05:44:30 PM 40.5342 -73.9986 41° Northeast 500 575 35,000  Level New York Center
Fri 05:45:30 PM 40.6436 -73.8864 38° Northeast 495 570 35,000  Level New York Center
Fri 05:47:48 PM 40.9494 -73.8581 North 473 544 35,000  Level Boston Center
Fri 05:48:48 PM 41.0828 -73.8500 North 468 539 35,000  Level Boston Center
Fri 05:49:46 PM 41.2119 -73.8472 North 468 539 35,000  Level Boston Center
Fri 05:50:47 PM 41.3433 -73.8419 North 476 548 35,000 -298 Level Boston Center
Fri 05:51:47 PM 41.4747 -73.8392 North 476 548 34,400 -793 Descending Boston Center
Fri 05:52:48 PM 41.6122 -73.8339 North 481 554 33,400 -1,190 Descending Boston Center
Fri 05:53:48 PM 41.7458 -73.8258 North 481 554 32,000 -1,627 Descending Boston Center
Fri 05:54:46 PM 41.8575 -73.7278 33° Northeast 454 522 30,200 -1,412 Descending Boston Center
Fri 05:55:47 PM 41.9550 -73.5819 48° Northeast 476 548 29,200 -1,230 Descending Boston Center
Fri 05:56:48 PM 42.0522 -73.4353 48° Northeast 495 570 27,700 -1,261 Descending Boston Center
Fri 05:57:46 PM 42.1514 -73.2858 48° Northeast 513 590 26,700 -850 Descending Boston Center
Fri 05:58:48 PM 42.2503 -73.1356 48° Northeast 519 597 26,000 -780 Descending Boston Center
Fri 05:59:49 PM 42.3492 -72.9794 49° Northeast 527 606 25,100 -1,714 Descending Boston Center
Fri 06:00:47 PM 42.4456 -72.8339 48° Northeast 542 624 22,600 -2,085 Descending Boston Center
Fri 06:01:47 PM 42.5250 -72.7133 48° Northeast 513 590 21,000 -793 Descending Boston Center
Fri 06:02:48 PM 42.6086 -72.5783 50° Northeast 481 554 21,000 -1,279 Level Boston Center
Fri 06:03:49 PM 42.6692 -72.4372 60° Northeast 435 501 18,400 -2,593 Descending Boston Center
Fri 06:04:46 PM 42.7089 -72.3100 67° East 435 501 15,900 -3,046 Descending Boston Center
Fri 06:05:59 PM 42.7647 -72.1092 69° East 446 513 11,800 -2,571 Descending Boston Center
Fri 06:06:59 PM 42.8267 -71.9703 59° Northeast 396 456 10,200 -1,438 Descending Boston Center
Fri 06:08:00 PM 42.8742 -71.8536 61° Northeast 341 392 8,900 -1,537 Descending Boston Center
Fri 06:09:00 PM 42.8403 -71.7719 119° Southeast 259 298 7,100 -1,967 Descending Boston Center
Fri 06:10:02 PM 42.7856 -71.7017 137° Southeast 243 280 4,900 -1,966 Descending Boston Center
Fri 06:10:59 PM 42.7728 -71.6481 108° East 160 184 3,200 -1,487 Descending Boston Center
Fri 06:11:59 PM 42.8142 -71.5911 45° Northeast 159 183 2,000 -590 Descending Boston Center
Fri 06:13:01 PM 42.8431 -71.5539 43° Northeast 153 176 2,000 -100 Level Boston Center
Fri 06:13:59 PM 42.8739 -71.5164 42° Northeast 141 162 1,800 -407 Descending Boston Center
Fri 06:14:59 PM 42.8967 -71.4878 43° Northeast 125 144 1,200 -694 Descending Boston Center
Fri 06:16:00 PM 42.9233 -71.4561 41° Northeast 120 138 400 -397 Descending Boston Center
Fri 06:17:00 PM 42.9483 -71.4303 37° Northeast 120 138 400 10,215 Level Boston Center
Fri 06:18:01 PM 42.9731 -71.4017 40° Northeast 120 138 21,000 10,300 Climbing Boston Center
Fri 06:19:00 PM 42.9997 -71.3728 38° Northeast 120 138 21,000  Level Boston Center
Fri 06:20:00 PM 42.9328 -71.4358 316° Northwest  Level Estimated
Fri 06:27:00 PM 42.9328 -71.4358 316° Northwest  Level Estimated
Fri 06:28:00 PM 42.9328 -71.4358 316° Northwest  Level Estimated
Fri 06:29:00 PM 42.9328 -71.4358 316° Northwest  Level Estimated
Fri 06:30:00 PM 42.9328 -71.4358 316° Northwest  Level Estimated
Fri 06:31:00 PM 42.9328 -71.4358 316° Northwest  Level Estimated
Fri 06:32:00 PM 42.9328 -71.4358 316° Northwest  Level Estimated
Fri 06:33:00 PM 42.9328 -71.4358 316° Northwest  Level Estimated

Login

Don't have an account? Register now (free) for customized features, flight alerts, and more!